Time;durP1;ratioP1;P1;durP2;ratioP2;P2;SDS_P1;SDS_P2;PMS_P1;PMS_P2;Temp;Humidity;BMP_temperature;BMP_pressure;BME280_temperature;BME280_humidity;BME280_pressure;Samples;Min_cycle;Max_cycle;Signal;HPM_P1;HPM_P2
2023/07/03 00:01:17;;;;;;;12.50;3.65;;;;;;;;;;5032715;28;20037;-77
2023/07/03 00:03:43;;;;;;;7.75;3.60;;;;;;;;;;5033226;28;20064;-77
2023/07/03 00:06:09;;;;;;;7.55;3.22;;;;;;;;;;5036585;28;20045;-77
2023/07/03 00:08:35;;;;;;;12.50;3.50;;;;;;;;;;5036913;28;20430;-77
2023/07/03 00:11:01;;;;;;;12.30;3.80;;;;;;;;;;5036436;28;20476;-77
2023/07/03 00:13:27;;;;;;;10.15;3.85;;;;;;;;;;5036911;28;20046;-77
2023/07/03 00:16:01;;;;;;;9.05;3.30;;;;;;;;;;5027084;28;20038;-77
2023/07/03 00:18:28;;;;;;;12.25;3.70;;;;;;;;;;5017007;28;20099;-77
2023/07/03 00:20:54;;;;;;;12.05;3.95;;;;;;;;;;5016459;28;20125;-78
2023/07/03 00:23:24;;;;;;;8.32;3.58;;;;;;;;;;5015149;28;20050;-78
2023/07/03 00:25:51;;;;;;;7.93;3.45;;;;;;;;;;5016133;28;20057;-78
2023/07/03 00:28:17;;;;;;;7.93;3.10;;;;;;;;;;5017083;28;20058;-77
2023/07/03 00:30:43;;;;;;;6.85;3.38;;;;;;;;;;5016696;28;20053;-77
2023/07/03 00:33:10;;;;;;;10.07;3.63;;;;;;;;;;5016668;28;20389;-77
2023/07/03 00:35:36;;;;;;;10.57;4.30;;;;;;;;;;5016188;28;20041;-77
2023/07/03 00:38:02;;;;;;;7.60;3.05;;;;;;;;;;5016490;28;20071;-76
2023/07/03 00:40:29;;;;;;;10.68;3.30;;;;;;;;;;5017807;28;20045;-77
2023/07/03 00:42:55;;;;;;;9.30;3.22;;;;;;;;;;5022276;28;20053;-77
2023/07/03 00:45:21;;;;;;;13.13;4.40;;;;;;;;;;5021134;28;20044;-76
2023/07/03 00:47:47;;;;;;;7.65;3.72;;;;;;;;;;5019400;28;20049;-76
2023/07/03 00:50:14;;;;;;;7.78;3.00;;;;;;;;;;5016639;28;20042;-77
2023/07/03 00:52:41;;;;;;;12.75;3.78;;;;;;;;;;5016561;28;20058;-76
2023/07/03 00:55:10;;;;;;;7.60;3.67;;;;;;;;;;5022727;28;20049;-76
2023/07/03 00:57:36;;;;;;;9.48;3.42;;;;;;;;;;5035430;28;20053;-78
2023/07/03 01:00:06;;;;;;;8.35;3.47;;;;;;;;;;5035634;28;20045;-77
2023/07/03 01:02:37;;;;;;;8.30;3.35;;;;;;;;;;5035348;28;20052;-77
2023/07/03 01:05:21;;;;;;;8.63;2.90;;;;;;;;;;5035499;28;20041;-78
2023/07/03 01:07:48;;;;;;;9.45;3.47;;;;;;;;;;5035347;28;20120;-76
2023/07/03 01:10:22;;;;;;;11.05;3.22;;;;;;;;;;5035360;28;20037;-76
2023/07/03 01:12:50;;;;;;;10.90;3.53;;;;;;;;;;5035807;28;20037;-77
2023/07/03 01:15:22;;;;;;;10.75;3.13;;;;;;;;;;5034741;28;20500;-76
2023/07/03 01:17:50;;;;;;;5.95;3.08;;;;;;;;;;5034286;28;20042;-76
2023/07/03 01:20:18;;;;;;;7.88;2.97;;;;;;;;;;5034796;28;20054;-76
2023/07/03 01:22:54;;;;;;;8.93;3.38;;;;;;;;;;5035648;28;20042;-76
2023/07/03 01:25:22;;;;;;;7.28;3.45;;;;;;;;;;5035160;28;20064;-76
2023/07/03 01:27:50;;;;;;;7.05;2.78;;;;;;;;;;5017426;28;20072;-76
2023/07/03 01:30:18;;;;;;;8.07;2.80;;;;;;;;;;5035145;28;20111;-76
2023/07/03 01:32:45;;;;;;;9.40;3.05;;;;;;;;;;5035124;28;20064;-76
2023/07/03 01:35:12;;;;;;;6.97;2.55;;;;;;;;;;5035100;28;20041;-76
2023/07/03 01:37:40;;;;;;;10.40;3.03;;;;;;;;;;5035301;28;20508;-76
2023/07/03 01:40:07;;;;;;;7.72;2.97;;;;;;;;;;5035429;28;20100;-77
2023/07/03 01:42:37;;;;;;;8.13;2.67;;;;;;;;;;5034872;28;20080;-76
2023/07/03 01:45:04;;;;;;;10.50;3.13;;;;;;;;;;5035101;28;20045;-77
2023/07/03 01:47:30;;;;;;;9.80;3.10;;;;;;;;;;5034316;28;20399;-76
2023/07/03 01:49:56;;;;;;;11.32;3.13;;;;;;;;;;5035072;28;20049;-76
2023/07/03 01:52:39;;;;;;;11.80;3.30;;;;;;;;;;5035090;28;20061;-76
2023/07/03 01:55:20;;;;;;;8.70;2.90;;;;;;;;;;5034438;28;20132;-77
2023/07/03 01:57:52;;;;;;;8.25;2.90;;;;;;;;;;5034621;28;20522;-77
2023/07/03 02:00:26;;;;;;;8.68;2.83;;;;;;;;;;5034802;28;20046;-77
2023/07/03 02:02:54;;;;;;;10.05;3.17;;;;;;;;;;5033155;28;20084;-77
2023/07/03 02:05:24;;;;;;;11.05;3.58;;;;;;;;;;5034432;28;20452;-77
2023/07/03 02:07:53;;;;;;;8.75;2.80;;;;;;;;;;5034652;28;20045;-77
2023/07/03 02:10:19;;;;;;;8.93;2.75;;;;;;;;;;5034756;28;20103;-76
2023/07/03 02:12:47;;;;;;;7.38;3.13;;;;;;;;;;5034553;28;20106;-76
2023/07/03 02:15:14;;;;;;;9.55;3.05;;;;;;;;;;5032497;28;20129;-77
2023/07/03 02:17:41;;;;;;;8.65;2.88;;;;;;;;;;5034229;28;20081;-77
2023/07/03 02:20:13;;;;;;;10.40;3.70;;;;;;;;;;5033902;28;20491;-76
2023/07/03 02:22:40;;;;;;;10.50;2.80;;;;;;;;;;5034508;28;20057;-76
2023/07/03 02:25:06;;;;;;;9.25;3.00;;;;;;;;;;5033877;28;20076;-76
2023/07/03 02:27:32;;;;;;;10.18;3.45;;;;;;;;;;5033837;28;20396;-76
2023/07/03 02:29:58;;;;;;;10.13;3.15;;;;;;;;;;5034133;28;20085;-76
2023/07/03 02:32:32;;;;;;;13.88;3.65;;;;;;;;;;5033708;28;20391;-76
2023/07/03 02:34:59;;;;;;;12.45;3.05;;;;;;;;;;5034126;28;20088;-76
2023/07/03 02:37:25;;;;;;;9.23;2.58;;;;;;;;;;5033815;28;20049;-77
2023/07/03 02:39:51;;;;;;;10.43;3.38;;;;;;;;;;5033987;28;20045;-77
2023/07/03 02:42:17;;;;;;;7.63;2.90;;;;;;;;;;5033832;28;20103;-77
2023/07/03 02:44:43;;;;;;;10.32;2.88;;;;;;;;;;5033675;28;20470;-77
2023/07/03 02:47:09;;;;;;;12.85;3.53;;;;;;;;;;5033408;28;20461;-76
2023/07/03 02:49:35;;;;;;;10.45;2.97;;;;;;;;;;5033771;28;20398;-76
2023/07/03 02:52:01;;;;;;;9.02;3.80;;;;;;;;;;5033677;28;20041;-76
2023/07/03 02:54:27;;;;;;;10.55;3.08;;;;;;;;;;5032124;28;20041;-76
2023/07/03 02:56:53;;;;;;;10.40;3.20;;;;;;;;;;5033390;28;20048;-76
2023/07/03 02:59:19;;;;;;;8.60;3.30;;;;;;;;;;5033606;28;20069;-77
2023/07/03 03:01:45;;;;;;;7.28;3.28;;;;;;;;;;5033262;28;20045;-77
2023/07/03 03:04:12;;;;;;;8.00;3.10;;;;;;;;;;5033416;28;20440;-77
2023/07/03 03:06:38;;;;;;;13.52;3.63;;;;;;;;;;5033307;28;20048;-77
2023/07/03 03:09:05;;;;;;;11.25;3.47;;;;;;;;;;5033277;28;20121;-76
2023/07/03 03:11:31;;;;;;;8.68;3.00;;;;;;;;;;5033044;28;20046;-76
2023/07/03 03:13:57;;;;;;;11.80;3.67;;;;;;;;;;5033293;28;20037;-76
2023/07/03 03:16:23;;;;;;;10.25;3.42;;;;;;;;;;5033094;28;20049;-76
2023/07/03 03:18:50;;;;;;;9.15;3.17;;;;;;;;;;5033282;28;20050;-76
2023/07/03 03:21:16;;;;;;;9.95;3.42;;;;;;;;;;5033206;28;20128;-76
2023/07/03 03:23:42;;;;;;;8.38;3.65;;;;;;;;;;5033607;28;20103;-76
2023/07/03 03:26:08;;;;;;;12.23;3.55;;;;;;;;;;5031555;28;20053;-77
2023/07/03 03:28:34;;;;;;;10.18;3.10;;;;;;;;;;5033190;28;20042;-76
2023/07/03 03:31:00;;;;;;;13.02;3.22;;;;;;;;;;5033387;28;20076;-76
2023/07/03 03:33:26;;;;;;;9.88;3.00;;;;;;;;;;5033065;28;20073;-77
2023/07/03 03:35:52;;;;;;;8.43;3.47;;;;;;;;;;5033104;28;20065;-76
2023/07/03 03:38:18;;;;;;;7.30;3.15;;;;;;;;;;5033264;28;20443;-77
2023/07/03 03:40:53;;;;;;;13.15;3.83;;;;;;;;;;5038786;28;20042;-77
2023/07/03 03:43:19;;;;;;;7.15;3.13;;;;;;;;;;5039621;28;20049;-77
2023/07/03 03:45:53;;;;;;;7.60;3.13;;;;;;;;;;5039207;28;20049;-76
2023/07/03 03:48:19;;;;;;;9.65;3.40;;;;;;;;;;5039556;28;20041;-76
2023/07/03 03:50:45;;;;;;;12.38;3.38;;;;;;;;;;5038985;28;20037;-76
2023/07/03 03:53:11;;;;;;;10.20;3.30;;;;;;;;;;5039890;28;20052;-76
2023/07/03 03:55:37;;;;;;;13.13;3.58;;;;;;;;;;5039258;28;20041;-76
2023/07/03 03:58:03;;;;;;;17.02;3.42;;;;;;;;;;5039240;28;20152;-77
2023/07/03 04:00:29;;;;;;;11.20;3.92;;;;;;;;;;5039139;28;20041;-76
2023/07/03 04:02:56;;;;;;;10.15;3.45;;;;;;;;;;5039432;28;20053;-76
2023/07/03 04:05:22;;;;;;;8.50;3.47;;;;;;;;;;5039391;28;20091;-76
2023/07/03 04:07:48;;;;;;;9.10;3.42;;;;;;;;;;5039746;28;20091;-76
2023/07/03 04:10:14;;;;;;;11.43;3.60;;;;;;;;;;5039557;28;20042;-76
2023/07/03 04:12:40;;;;;;;11.45;3.35;;;;;;;;;;5039449;28;20045;-76
2023/07/03 04:15:06;;;;;;;8.25;3.03;;;;;;;;;;5038967;28;20041;-77
2023/07/03 04:17:32;;;;;;;8.80;2.90;;;;;;;;;;5039399;28;20049;-77
2023/07/03 04:19:58;;;;;;;11.80;2.80;;;;;;;;;;5042231;28;20041;-78
2023/07/03 04:22:26;;;;;;;6.30;2.90;;;;;;;;;;5043285;28;20052;-78
2023/07/03 04:24:52;;;;;;;8.10;3.15;;;;;;;;;;5043190;28;20056;-78
2023/07/03 04:27:18;;;;;;;10.68;3.13;;;;;;;;;;5040115;28;20118;-76
2023/07/03 04:29:45;;;;;;;13.02;3.17;;;;;;;;;;5040180;28;20054;-77
2023/07/03 04:32:11;;;;;;;8.07;2.70;;;;;;;;;;5039181;28;20052;-78
2023/07/03 04:34:37;;;;;;;8.52;3.60;;;;;;;;;;5038797;28;20071;-77
2023/07/03 04:37:03;;;;;;;8.75;3.28;;;;;;;;;;5037262;28;20079;-77
2023/07/03 04:39:31;;;;;;;9.73;3.28;;;;;;;;;;5037461;28;20095;-77
2023/07/03 04:42:00;;;;;;;7.75;3.13;;;;;;;;;;5038901;28;20121;-76
2023/07/03 04:44:26;;;;;;;11.27;2.95;;;;;;;;;;5039360;28;20057;-76
2023/07/03 04:46:55;;;;;;;8.50;2.78;;;;;;;;;;5038435;28;20420;-77
2023/07/03 04:49:26;;;;;;;10.38;3.17;;;;;;;;;;5039310;28;20116;-77
2023/07/03 04:51:55;;;;;;;10.05;2.70;;;;;;;;;;5035761;28;20052;-76
2023/07/03 04:54:22;;;;;;;9.10;2.85;;;;;;;;;;5035477;28;20037;-78
2023/07/03 04:56:48;;;;;;;8.15;2.58;;;;;;;;;;5016041;28;20046;-77
2023/07/03 04:59:17;;;;;;;10.68;3.22;;;;;;;;;;5016386;28;20038;-77
2023/07/03 05:01:43;;;;;;;9.20;3.45;;;;;;;;;;5014455;28;20049;-77
2023/07/03 05:04:10;;;;;;;10.75;2.65;;;;;;;;;;5016414;28;20058;-77
2023/07/03 05:06:36;;;;;;;7.63;2.55;;;;;;;;;;5015588;28;20566;-77
2023/07/03 05:09:03;;;;;;;6.95;2.28;;;;;;;;;;5016127;28;20038;-78
2023/07/03 05:11:29;;;;;;;7.82;2.85;;;;;;;;;;5015778;28;20481;-77
2023/07/03 05:13:55;;;;;;;6.30;2.20;;;;;;;;;;4998340;28;20046;-77
2023/07/03 05:16:21;;;;;;;7.53;2.20;;;;;;;;;;5015319;28;20042;-77
2023/07/03 05:18:48;;;;;;;7.28;2.65;;;;;;;;;;5016492;28;20068;-77
2023/07/03 05:21:14;;;;;;;8.10;2.63;;;;;;;;;;5015516;28;20051;-77
2023/07/03 05:23:40;;;;;;;8.02;2.45;;;;;;;;;;5015677;28;20046;-77
2023/07/03 05:26:06;;;;;;;9.85;2.40;;;;;;;;;;5014875;28;20058;-77
2023/07/03 05:28:32;;;;;;;10.20;2.67;;;;;;;;;;5016254;28;20117;-78
2023/07/03 05:30:59;;;;;;;7.65;2.55;;;;;;;;;;5015624;28;20053;-77
2023/07/03 05:33:25;;;;;;;8.32;2.60;;;;;;;;;;5015630;28;20369;-78
2023/07/03 05:35:51;;;;;;;8.95;2.60;;;;;;;;;;5014753;28;20385;-77
2023/07/03 05:38:18;;;;;;;8.02;2.72;;;;;;;;;;5015530;28;20137;-78
2023/07/03 05:40:44;;;;;;;8.32;2.58;;;;;;;;;;5014709;28;20064;-77
2023/07/03 05:43:10;;;;;;;9.75;2.60;;;;;;;;;;5014991;28;20042;-77
2023/07/03 05:45:37;;;;;;;7.97;2.60;;;;;;;;;;5015376;28;20061;-77
2023/07/03 05:48:03;;;;;;;8.48;2.30;;;;;;;;;;5015144;28;20050;-76
2023/07/03 05:50:29;;;;;;;9.13;3.20;;;;;;;;;;5014929;28;20042;-76
2023/07/03 05:52:55;;;;;;;9.60;2.40;;;;;;;;;;5015296;28;20061;-77
2023/07/03 05:55:21;;;;;;;8.13;2.45;;;;;;;;;;5014338;28;20424;-77
2023/07/03 05:57:47;;;;;;;10.43;2.63;;;;;;;;;;5014970;28;20455;-77
2023/07/03 06:00:14;;;;;;;6.10;2.20;;;;;;;;;;5014304;28;20049;-77
2023/07/03 06:02:43;;;;;;;5.07;1.92;;;;;;;;;;5014894;28;20053;-76
2023/07/03 06:05:11;;;;;;;11.02;2.45;;;;;;;;;;5014838;28;20500;-76
2023/07/03 06:07:37;;;;;;;7.60;2.47;;;;;;;;;;5014661;28;20115;-76
2023/07/03 06:10:04;;;;;;;5.45;2.17;;;;;;;;;;5014247;28;20085;-77
2023/07/03 06:12:30;;;;;;;6.20;2.25;;;;;;;;;;5014914;28;20049;-76
2023/07/03 06:15:00;;;;;;;6.53;2.40;;;;;;;;;;5014560;28;20137;-77
2023/07/03 06:17:27;;;;;;;8.25;2.53;;;;;;;;;;5014138;28;20583;-77
2023/07/03 06:19:54;;;;;;;5.53;2.00;;;;;;;;;;5014073;28;20050;-76
2023/07/03 06:22:20;;;;;;;18.33;2.65;;;;;;;;;;5014534;28;20048;-76
2023/07/03 06:24:46;;;;;;;6.43;2.05;;;;;;;;;;5014565;28;20041;-78
2023/07/03 06:27:12;;;;;;;9.25;2.53;;;;;;;;;;5014723;28;20054;-77
2023/07/03 06:29:39;;;;;;;5.20;2.20;;;;;;;;;;5013824;28;20068;-77
2023/07/03 06:32:05;;;;;;;8.50;2.65;;;;;;;;;;5013966;28;20045;-78
2023/07/03 06:34:31;;;;;;;7.25;2.20;;;;;;;;;;5014394;28;20095;-77
2023/07/03 06:36:57;;;;;;;17.13;2.72;;;;;;;;;;5012561;28;20053;-76
2023/07/03 06:39:24;;;;;;;6.43;2.20;;;;;;;;;;5014067;28;20057;-78
2023/07/03 06:41:50;;;;;;;6.82;2.28;;;;;;;;;;5014154;28;20108;-78
2023/07/03 06:44:17;;;;;;;5.28;2.30;;;;;;;;;;5014162;28;20108;-78
2023/07/03 06:46:43;;;;;;;7.85;2.20;;;;;;;;;;5013743;28;20248;-77
2023/07/03 06:49:10;;;;;;;7.68;2.30;;;;;;;;;;5013952;28;20121;-77
2023/07/03 06:51:36;;;;;;;5.72;2.33;;;;;;;;;;5013481;28;20046;-77
2023/07/03 06:54:02;;;;;;;5.80;2.38;;;;;;;;;;5013636;28;20041;-77
2023/07/03 06:56:29;;;;;;;6.50;2.47;;;;;;;;;;5013285;28;20494;-77
2023/07/03 06:58:56;;;;;;;5.68;2.30;;;;;;;;;;5013701;28;20061;-78
2023/07/03 07:01:23;;;;;;;7.95;2.58;;;;;;;;;;5013404;28;20042;-77
2023/07/03 07:03:49;;;;;;;6.30;1.95;;;;;;;;;;5013934;28;20131;-77
2023/07/03 07:06:15;;;;;;;9.25;2.83;;;;;;;;;;5013794;28;20042;-78
2023/07/03 07:08:42;;;;;;;8.70;2.60;;;;;;;;;;5013736;28;20122;-78
2023/07/03 07:11:09;;;;;;;6.45;2.10;;;;;;;;;;5013221;28;20564;-77
2023/07/03 07:13:35;;;;;;;6.50;2.25;;;;;;;;;;5013156;28;20096;-77
2023/07/03 07:16:01;;;;;;;6.22;2.10;;;;;;;;;;5023724;28;20037;-78
2023/07/03 07:18:28;;;;;;;5.63;2.45;;;;;;;;;;5032101;28;20084;-77
2023/07/03 07:20:54;;;;;;;5.90;2.13;;;;;;;;;;5032713;28;20045;-77
2023/07/03 07:23:20;;;;;;;10.43;2.60;;;;;;;;;;5033677;28;20073;-77
2023/07/03 07:25:53;;;;;;;10.82;2.50;;;;;;;;;;5032709;28;20077;-77
2023/07/03 07:28:19;;;;;;;5.43;2.10;;;;;;;;;;5033295;28;20049;-77
2023/07/03 07:30:45;;;;;;;9.40;2.33;;;;;;;;;;5032740;28;20123;-78
2023/07/03 07:33:11;;;;;;;4.85;2.08;;;;;;;;;;5032965;28;20044;-78
2023/07/03 07:35:37;;;;;;;4.43;1.90;;;;;;;;;;5031601;28;20049;-77
2023/07/03 07:38:04;;;;;;;4.65;2.20;;;;;;;;;;5033465;28;20085;-78
2023/07/03 07:40:30;;;;;;;6.68;2.35;;;;;;;;;;5033301;28;20052;-78
2023/07/03 07:42:56;;;;;;;6.07;2.35;;;;;;;;;;5032927;28;20064;-78
2023/07/03 07:45:22;;;;;;;3.28;1.77;;;;;;;;;;5032814;28;20104;-78
2023/07/03 07:47:48;;;;;;;8.90;2.05;;;;;;;;;;5033203;28;20103;-78
2023/07/03 07:50:14;;;;;;;5.65;2.30;;;;;;;;;;5032793;28;20041;-78
2023/07/03 07:52:40;;;;;;;7.88;2.58;;;;;;;;;;5033175;28;20048;-78
2023/07/03 07:55:06;;;;;;;7.72;2.25;;;;;;;;;;5036791;28;20120;-77
2023/07/03 07:57:32;;;;;;;7.25;2.92;;;;;;;;;;5038333;28;20103;-77
2023/07/03 07:59:58;;;;;;;6.63;2.10;;;;;;;;;;5037116;28;20045;-77
2023/07/03 08:02:24;;;;;;;8.38;2.03;;;;;;;;;;5032171;28;20045;-78
2023/07/03 08:04:50;;;;;;;5.50;1.92;;;;;;;;;;5033421;28;20053;-78
2023/07/03 08:07:16;;;;;;;5.22;1.90;;;;;;;;;;5033060;28;20607;-78
2023/07/03 08:09:42;;;;;;;6.70;2.30;;;;;;;;;;5032728;28;20045;-76
2023/07/03 08:12:09;;;;;;;5.82;2.40;;;;;;;;;;5032828;28;20085;-77
2023/07/03 08:14:35;;;;;;;7.05;2.20;;;;;;;;;;5032592;28;20092;-76
2023/07/03 08:17:01;;;;;;;7.05;2.20;;;;;;;;;;5032535;28;20046;-77
2023/07/03 08:19:27;;;;;;;6.97;2.17;;;;;;;;;;5033087;28;20108;-77
2023/07/03 08:21:55;;;;;;;6.18;2.15;;;;;;;;;;5032367;28;20049;-77
2023/07/03 08:24:21;;;;;;;6.05;2.15;;;;;;;;;;5030886;28;20057;-78
2023/07/03 08:26:49;;;;;;;6.97;2.72;;;;;;;;;;5033815;28;20060;-77
2023/07/03 08:29:15;;;;;;;6.93;2.08;;;;;;;;;;5036695;28;20399;-77
2023/07/03 08:31:41;;;;;;;7.10;2.40;;;;;;;;;;5036592;28;20076;-76
2023/07/03 08:34:08;;;;;;;7.60;2.10;;;;;;;;;;5035873;28;20144;-78
2023/07/03 08:36:34;;;;;;;8.50;2.58;;;;;;;;;;5035722;28;20042;-77
2023/07/03 08:39:01;;;;;;;9.05;2.50;;;;;;;;;;5035944;28;20042;-76
2023/07/03 08:41:28;;;;;;;7.40;2.22;;;;;;;;;;5036307;28;20045;-77
2023/07/03 08:43:56;;;;;;;4.68;1.90;;;;;;;;;;5036314;28;20046;-77
2023/07/03 08:46:24;;;;;;;5.18;2.42;;;;;;;;;;5036044;28;20056;-77
2023/07/03 08:48:51;;;;;;;8.57;2.70;;;;;;;;;;5035978;28;20117;-77
2023/07/03 08:51:19;;;;;;;7.18;2.30;;;;;;;;;;5035760;28;20526;-77
2023/07/03 08:53:49;;;;;;;6.95;2.22;;;;;;;;;;5035795;28;20149;-77
2023/07/03 08:56:17;;;;;;;6.35;1.92;;;;;;;;;;5034517;28;20045;-78
2023/07/03 08:58:47;;;;;;;4.55;2.08;;;;;;;;;;5036034;28;20053;-77
2023/07/03 09:01:22;;;;;;;5.95;1.85;;;;;;;;;;5035484;28;20037;-77
2023/07/03 09:03:49;;;;;;;;;;;;;;;;;;5036516;28;20456;-77
2023/07/03 09:06:15;;;;;;;;;;;;;;;;;;5036195;28;19921;-77
2023/07/03 09:09:03;;;;;;;4.90;2.08;;;;;;;;;;5035455;28;19944;-77
2023/07/03 09:11:30;;;;;;;6.68;2.40;;;;;;;;;;5035306;28;20052;-77
2023/07/03 09:13:59;;;;;;;4.00;1.98;;;;;;;;;;5035363;28;20045;-77
2023/07/03 09:16:25;;;;;;;7.70;2.08;;;;;;;;;;5035057;28;20128;-78
2023/07/03 09:18:54;;;;;;;3.05;1.90;;;;;;;;;;5035271;28;20049;-78
2023/07/03 09:21:21;;;;;;;4.13;2.13;;;;;;;;;;5035146;28;20045;-78
2023/07/03 09:23:56;;;;;;;4.88;2.10;;;;;;;;;;5035235;28;20128;-78
2023/07/03 09:26:29;;;;;;;3.37;1.97;;;;;;;;;;5033992;28;20084;-78
2023/07/03 09:28:58;;;;;;;6.05;2.10;;;;;;;;;;5035570;28;20049;-77
2023/07/03 09:31:28;;;;;;;5.90;2.22;;;;;;;;;;5035229;28;20119;-77
2023/07/03 09:33:54;;;;;;;5.68;1.90;;;;;;;;;;5035309;28;20049;-77
2023/07/03 09:36:29;;;;;;;4.82;1.98;;;;;;;;;;5034666;28;20057;-77
2023/07/03 09:38:55;;;;;;;6.00;2.25;;;;;;;;;;5034662;28;20480;-77
2023/07/03 09:41:31;;;;;;;6.90;2.00;;;;;;;;;;5034766;28;20396;-77
2023/07/03 09:43:57;;;;;;;9.55;2.58;;;;;;;;;;5035227;28;20111;-78
2023/07/03 09:46:24;;;;;;;6.28;2.00;;;;;;;;;;5035014;28;20087;-77
2023/07/03 09:48:50;;;;;;;7.85;2.05;;;;;;;;;;5035440;28;20050;-77
2023/07/03 09:51:19;;;;;;;3.03;1.80;;;;;;;;;;5034472;28;20037;-77
2023/07/03 09:53:45;;;;;;;4.70;2.03;;;;;;;;;;5033451;28;20482;-77
2023/07/03 09:56:13;;;;;;;4.78;1.63;;;;;;;;;;5034734;28;20049;-77
2023/07/03 09:58:43;;;;;;;4.53;1.80;;;;;;;;;;5033667;28;20049;-78
2023/07/03 10:01:15;;;;;;;5.28;1.88;;;;;;;;;;5034528;28;20102;-78
2023/07/03 10:03:41;;;;;;;4.13;2.20;;;;;;;;;;5033431;28;20498;-78
2023/07/03 10:06:15;;;;;;;4.75;2.10;;;;;;;;;;5034054;28;20488;-77
2023/07/03 10:08:44;;;;;;;4.60;2.10;;;;;;;;;;5034089;28;20342;-77
2023/07/03 10:11:10;;;;;;;10.48;2.15;;;;;;;;;;5034324;28;20067;-77
2023/07/03 10:13:38;;;;;;;4.32;2.10;;;;;;;;;;5034251;28;20041;-77
2023/07/03 10:16:05;;;;;;;6.00;2.00;;;;;;;;;;5034104;28;20049;-77
2023/07/03 10:18:32;;;;;;;4.72;2.15;;;;;;;;;;5034672;28;20041;-77
2023/07/03 10:21:01;;;;;;;6.75;2.42;;;;;;;;;;5033763;28;20112;-77
2023/07/03 10:23:29;;;;;;;6.35;2.53;;;;;;;;;;5034201;28;20046;-77
2023/07/03 10:25:58;;;;;;;6.00;2.20;;;;;;;;;;5033831;28;20053;-77
2023/07/03 10:28:27;;;;;;;3.47;2.03;;;;;;;;;;5034024;28;20115;-77
2023/07/03 10:30:58;;;;;;;6.68;2.20;;;;;;;;;;5034078;28;20049;-77
2023/07/03 10:33:26;;;;;;;4.68;2.10;;;;;;;;;;5034191;28;20048;-77
2023/07/03 10:35:54;;;;;;;6.80;2.20;;;;;;;;;;5033589;28;20099;-78
2023/07/03 10:38:20;;;;;;;4.75;2.25;;;;;;;;;;5034351;28;20054;-77
2023/07/03 10:41:03;;;;;;;4.57;2.20;;;;;;;;;;5033698;28;20114;-77
2023/07/03 10:43:32;;;;;;;4.95;1.98;;;;;;;;;;5034090;28;20053;-77
2023/07/03 10:45:59;;;;;;;6.50;2.42;;;;;;;;;;5033583;28;20458;-77
2023/07/03 10:48:29;;;;;;;7.20;2.08;;;;;;;;;;5033201;28;20045;-78
2023/07/03 10:51:00;;;;;;;7.28;2.00;;;;;;;;;;5032766;28;20411;-78
2023/07/03 10:53:35;;;;;;;5.20;1.95;;;;;;;;;;5033747;28;20041;-77
2023/07/03 10:56:05;;;;;;;5.50;1.90;;;;;;;;;;5019251;28;20045;-77
2023/07/03 10:58:37;;;;;;;6.13;2.33;;;;;;;;;;5014364;28;20050;-77
2023/07/03 11:01:03;;;;;;;5.55;2.25;;;;;;;;;;5013937;28;20052;-77
2023/07/03 11:03:38;;;;;;;5.55;1.90;;;;;;;;;;5013863;28;20057;-77
2023/07/03 11:06:09;;;;;;;5.88;2.05;;;;;;;;;;5013730;28;20042;-77
2023/07/03 11:08:43;;;;;;;5.78;1.98;;;;;;;;;;5013860;28;20365;-77
2023/07/03 11:11:15;;;;;;;6.20;2.00;;;;;;;;;;5013936;28;20061;-77
2023/07/03 11:13:49;;;;;;;4.30;2.08;;;;;;;;;;5013512;28;20461;-77
2023/07/03 11:16:15;;;;;;;6.68;2.35;;;;;;;;;;5013491;28;20081;-77
2023/07/03 11:18:53;;;;;;;5.75;2.10;;;;;;;;;;5013951;28;20060;-77
2023/07/03 11:21:35;;;;;;;5.82;1.80;;;;;;;;;;5013338;28;20369;-77
2023/07/03 11:24:20;;;;;;;4.32;1.80;;;;;;;;;;5012901;28;20350;-77
2023/07/03 11:26:56;;;;;;;4.72;1.75;;;;;;;;;;5011937;28;20053;-77
2023/07/03 11:29:23;;;;;;;5.25;1.95;;;;;;;;;;5013913;28;20051;-77
2023/07/03 11:31:50;;;;;;;6.22;2.22;;;;;;;;;;5012999;28;20064;-77
2023/07/03 11:34:19;;;;;;;5.30;2.00;;;;;;;;;;5013959;28;20046;-77
2023/07/03 11:36:46;;;;;;;5.63;2.55;;;;;;;;;;5017296;28;20057;-77
2023/07/03 11:39:24;;;;;;;4.18;1.92;;;;;;;;;;5018046;28;20041;-77
2023/07/03 11:41:51;;;;;;;6.47;2.53;;;;;;;;;;5017094;28;20068;-77
2023/07/03 11:44:30;;;;;;;3.33;1.52;;;;;;;;;;5014461;28;20053;-76
2023/07/03 11:47:00;;;;;;;7.18;2.08;;;;;;;;;;5013446;28;20049;-77
2023/07/03 11:49:30;;;;;;;6.00;2.30;;;;;;;;;;5013320;28;20049;-77
2023/07/03 11:52:00;;;;;;;6.80;2.30;;;;;;;;;;5013219;28;20060;-77
2023/07/03 11:54:27;;;;;;;6.57;2.10;;;;;;;;;;5014383;28;20050;-77
2023/07/03 11:56:55;;;;;;;6.97;2.03;;;;;;;;;;5032550;28;20503;-77
2023/07/03 11:59:25;;;;;;;8.75;2.13;;;;;;;;;;5032888;28;20042;-77
2023/07/03 12:01:55;;;;;;;4.95;1.90;;;;;;;;;;5036229;28;20053;-77
2023/07/03 12:04:40;;;;;;;5.30;1.92;;;;;;;;;;5036596;28;20046;-77
2023/07/03 12:07:06;;;;;;;3.75;1.95;;;;;;;;;;5036668;28;20049;-77
2023/07/03 12:09:32;;;;;;;4.75;2.05;;;;;;;;;;5036791;28;20125;-76
2023/07/03 12:12:06;;;;;;;7.50;2.03;;;;;;;;;;5036771;28;20052;-77
2023/07/03 12:14:47;;;;;;;6.03;2.10;;;;;;;;;;5036745;28;20045;-77
2023/07/03 12:17:20;;;;;;;4.80;1.70;;;;;;;;;;5017053;28;20069;-78
2023/07/03 12:19:47;;;;;;;4.65;2.00;;;;;;;;;;5016611;28;20503;-77
2023/07/03 12:22:15;;;;;;;6.40;1.90;;;;;;;;;;5016372;28;20041;-77
2023/07/03 12:24:41;;;;;;;6.15;2.10;;;;;;;;;;5016891;28;20053;-77
2023/07/03 12:27:08;;;;;;;4.38;1.90;;;;;;;;;;5016886;28;20094;-77
2023/07/03 12:29:44;;;;;;;2.95;1.65;;;;;;;;;;5016243;28;20049;-77
2023/07/03 12:32:10;;;;;;;;;;;;;;;;;;5016867;28;20041;-77
2023/07/03 12:34:38;;;;;;;3.35;1.60;;;;;;;;;;5016882;28;19921;-77
2023/07/03 12:37:06;;;;;;;3.88;1.98;;;;;;;;;;5016297;28;20049;-77
2023/07/03 12:39:32;;;;;;;5.97;1.90;;;;;;;;;;5016457;28;20121;-77
2023/07/03 12:42:11;;;;;;;4.28;1.80;;;;;;;;;;5016310;28;20484;-77
2023/07/03 12:44:37;;;;;;;5.75;2.08;;;;;;;;;;5016072;28;20044;-77
2023/07/03 12:47:11;;;;;;;5.15;1.98;;;;;;;;;;5014491;28;20125;-77
2023/07/03 12:49:48;;;;;;;3.97;1.88;;;;;;;;;;5016030;28;20091;-77
2023/07/03 12:52:14;;;;;;;4.28;1.70;;;;;;;;;;5015882;28;20141;-77
2023/07/03 12:54:40;;;;;;;5.97;2.33;;;;;;;;;;5016161;28;20493;-77
2023/07/03 12:57:08;;;;;;;4.28;1.95;;;;;;;;;;5015394;28;20434;-77
2023/07/03 12:59:35;;;;;;;6.13;2.10;;;;;;;;;;5016072;28;20050;-77
2023/07/03 13:02:01;;;;;;;8.52;2.35;;;;;;;;;;5015739;28;20038;-77
2023/07/03 13:04:28;;;;;;;3.80;1.95;;;;;;;;;;5015721;28;20443;-77
2023/07/03 13:06:55;;;;;;;5.72;2.10;;;;;;;;;;5014261;28;20127;-78
2023/07/03 13:09:22;;;;;;;6.10;2.00;;;;;;;;;;5015614;28;20049;-77
2023/07/03 13:11:48;;;;;;;6.28;2.10;;;;;;;;;;5014521;28;20446;-77
2023/07/03 13:14:15;;;;;;;4.68;1.92;;;;;;;;;;5016051;28;20050;-76
2023/07/03 13:16:42;;;;;;;4.93;1.67;;;;;;;;;;5015345;28;20488;-77
2023/07/03 13:19:08;;;;;;;6.93;1.80;;;;;;;;;;5015574;28;20049;-77
2023/07/03 13:21:35;;;;;;;3.90;1.73;;;;;;;;;;5015658;28;20050;-77
2023/07/03 13:24:09;;;;;;;3.25;1.90;;;;;;;;;;5015992;28;20123;-77
2023/07/03 13:26:36;;;;;;;3.97;1.80;;;;;;;;;;5015016;28;20475;-77
2023/07/03 13:29:03;;;;;;;4.22;2.00;;;;;;;;;;5015457;28;20049;-78
2023/07/03 13:31:31;;;;;;;3.67;1.80;;;;;;;;;;5015192;28;20137;-78
2023/07/03 13:34:00;;;;;;;4.03;1.67;;;;;;;;;;5015359;28;20050;-77
2023/07/03 13:36:28;;;;;;;5.53;2.10;;;;;;;;;;5014852;28;20049;-77
2023/07/03 13:39:09;;;;;;;5.90;1.92;;;;;;;;;;5015301;28;20392;-77
2023/07/03 13:41:35;;;;;;;7.25;2.10;;;;;;;;;;5013641;28;20057;-78
2023/07/03 13:44:02;;;;;;;7.32;2.00;;;;;;;;;;5015128;28;20042;-77
2023/07/03 13:46:28;;;;;;;7.40;2.00;;;;;;;;;;5015394;28;20042;-77
2023/07/03 13:48:55;;;;;;;5.22;2.10;;;;;;;;;;5015262;28;20558;-77
2023/07/03 13:51:21;;;;;;;5.68;2.03;;;;;;;;;;5014747;28;20107;-77
2023/07/03 13:53:48;;;;;;;6.32;2.28;;;;;;;;;;5015024;28;20121;-77
2023/07/03 13:56:14;;;;;;;4.93;1.95;;;;;;;;;;5014945;28;20053;-77
2023/07/03 13:58:40;;;;;;;4.10;1.80;;;;;;;;;;5015066;28;20052;-77
2023/07/03 14:01:06;;;;;;;4.25;2.13;;;;;;;;;;5014719;28;20121;-77
2023/07/03 14:03:32;;;;;;;5.72;2.10;;;;;;;;;;5015248;28;20053;-78
2023/07/03 14:05:59;;;;;;;5.72;2.03;;;;;;;;;;5014323;28;20046;-78
2023/07/03 14:08:27;;;;;;;4.10;1.92;;;;;;;;;;5014339;28;20174;-77
2023/07/03 14:10:53;;;;;;;4.78;2.03;;;;;;;;;;5012936;28;20057;-78
2023/07/03 14:13:19;;;;;;;6.47;2.03;;;;;;;;;;5014925;28;20469;-78
2023/07/03 14:15:45;;;;;;;5.47;1.92;;;;;;;;;;5021367;28;20049;-78
2023/07/03 14:18:11;;;;;;;4.22;1.90;;;;;;;;;;5034640;28;20106;-78
2023/07/03 14:20:38;;;;;;;5.35;2.03;;;;;;;;;;5034747;28;20049;-77
2023/07/03 14:23:05;;;;;;;6.63;2.10;;;;;;;;;;5033914;28;20076;-77
2023/07/03 14:25:31;;;;;;;5.32;2.00;;;;;;;;;;5033991;28;20058;-78
2023/07/03 14:27:58;;;;;;;5.97;2.10;;;;;;;;;;5033680;28;20487;-78
2023/07/03 14:30:25;;;;;;;3.78;1.88;;;;;;;;;;5034068;28;20053;-77
2023/07/03 14:32:51;;;;;;;3.53;1.90;;;;;;;;;;5034157;28;20175;-77
2023/07/03 14:35:17;;;;;;;4.60;2.20;;;;;;;;;;5034013;28;20049;-77
2023/07/03 14:37:43;;;;;;;5.63;2.05;;;;;;;;;;5034038;28;20107;-77
2023/07/03 14:40:11;;;;;;;5.35;2.30;;;;;;;;;;5033573;28;20052;-77
2023/07/03 14:42:37;;;;;;;5.70;2.03;;;;;;;;;;5034204;28;20045;-77
2023/07/03 14:45:03;;;;;;;8.38;2.38;;;;;;;;;;5034079;28;20132;-77